createdAt,value
2022-11-21T00:01:11.974Z,99852.84
2022-11-21T00:03:38.791Z,99837.91
2022-11-21T00:06:05.413Z,99848.91
2022-11-21T00:08:32.041Z,99833.91
2022-11-21T00:11:01.851Z,99839.25
2022-11-21T00:13:28.344Z,99834.44
2022-11-21T00:15:55.068Z,99840.50
2022-11-21T00:18:21.726Z,99850.88
2022-11-21T00:20:48.403Z,99841.50
2022-11-21T00:23:15.108Z,99853.44
2022-11-21T00:25:41.765Z,99853.44
2022-11-21T00:28:08.947Z,99853.78
2022-11-21T00:30:35.875Z,99858.06
2022-11-21T00:33:02.517Z,99866.31
2022-11-21T00:35:31.433Z,99866.84
2022-11-21T00:37:58.069Z,99868.44
2022-11-21T00:40:24.641Z,99861.22
2022-11-21T00:42:51.255Z,99857.53
2022-11-21T00:45:23.854Z,99856.94
2022-11-21T00:47:51.003Z,99852.00
2022-11-21T00:50:17.699Z,99845.66
2022-11-21T00:52:44.334Z,99856.13
2022-11-21T00:55:10.978Z,99847.34
2022-11-21T00:57:37.541Z,99843.88
2022-11-21T01:00:05.803Z,99841.72
2022-11-21T01:02:33.052Z,99839.22
2022-11-21T01:04:59.792Z,99827.75
2022-11-21T01:07:26.635Z,99829.91
2022-11-21T01:09:53.297Z,99823.97
2022-11-21T01:12:19.911Z,99823.97
2022-11-21T01:14:46.520Z,99825.63
2022-11-21T01:17:13.385Z,99810.63
2022-11-21T01:19:40.046Z,99819.63
2022-11-21T01:22:06.635Z,99819.13
2022-11-21T01:24:33.330Z,99820.19
2022-11-21T01:27:00.007Z,99817.00
2022-11-21T01:29:27.941Z,99815.13
2022-11-21T01:31:54.576Z,99812.09
2022-11-21T01:34:21.322Z,99804.47
2022-11-21T01:36:47.970Z,99801.59
2022-11-21T01:39:14.603Z,99809.03
2022-11-21T01:41:43.789Z,99811.75
2022-11-21T01:44:17.832Z,99810.69
2022-11-21T01:46:44.679Z,99805.88
2022-11-21T01:49:16.590Z,99817.28
2022-11-21T01:51:52.507Z,99820.69
2022-11-21T01:54:33.058Z,99809.81
2022-11-21T01:57:29.917Z,99810.69
2022-11-21T02:00:05.886Z,99809.72
2022-11-21T02:02:44.234Z,99805.47
2022-11-21T02:05:16.205Z,99797.91
2022-11-21T02:07:46.308Z,99796.31
2022-11-21T02:10:14.425Z,99799.00
2022-11-21T02:12:47.406Z,99800.59
2022-11-21T02:15:14.797Z,99799.28
2022-11-21T02:17:41.386Z,99793.09
2022-11-21T02:20:11.374Z,99787.78
2022-11-21T02:23:02.663Z,99783.72
2022-11-21T02:25:31.181Z,99784.78
2022-11-21T02:28:01.676Z,99786.94
2022-11-21T02:30:32.729Z,99781.44
2022-11-21T02:32:59.267Z,99784.94
2022-11-21T02:35:26.207Z,99789.03
2022-11-21T02:38:16.842Z,99789.44
2022-11-21T02:40:52.137Z,99782.56
2022-11-21T02:43:28.515Z,99780.22
2022-11-21T02:45:55.199Z,99786.38
2022-11-21T02:48:21.853Z,99783.44
2022-11-21T02:50:48.567Z,99785.84
2022-11-21T02:53:18.719Z,99791.19
2022-11-21T02:55:45.751Z,99789.88
2022-11-21T02:58:13.050Z,99775.47
2022-11-21T03:00:41.232Z,99781.91
2022-11-21T03:03:08.753Z,99780.28
2022-11-21T03:05:35.929Z,99781.38
2022-11-21T03:08:03.471Z,99772.63
2022-11-21T03:10:30.298Z,99778.25
2022-11-21T03:13:01.054Z,99771.31
2022-11-21T03:15:30.550Z,99775.03
2022-11-21T03:17:57.815Z,99776.13
2022-11-21T03:20:24.899Z,99782.00
2022-11-21T03:22:53.389Z,99773.13
2022-11-21T03:25:20.360Z,99773.44
2022-11-21T03:27:50.067Z,99777.16
2022-11-21T03:30:16.707Z,99770.78
2022-11-21T03:32:43.492Z,99774.47
2022-11-21T03:35:10.150Z,99781.13
2022-11-21T03:37:36.760Z,99784.53
2022-11-21T03:40:04.115Z,99784.50
2022-11-21T03:42:30.643Z,99777.53
2022-11-21T03:44:57.207Z,99789.22
2022-11-21T03:47:24.711Z,99783.31
2022-11-21T03:49:51.371Z,99789.75
2022-11-21T03:52:18.032Z,99792.13
2022-11-21T03:54:44.632Z,99782.75
2022-11-21T03:57:11.171Z,99791.78
2022-11-21T03:59:37.777Z,99793.88
2022-11-21T04:02:04.499Z,99788.13
2022-11-21T04:04:31.096Z,99785.00
2022-11-21T04:06:57.762Z,99779.66
2022-11-21T04:09:24.342Z,99771.09
2022-11-21T04:11:50.980Z,99778.78
2022-11-21T04:14:17.768Z,99772.13
2022-11-21T04:16:44.316Z,99768.91
2022-11-21T04:19:10.894Z,99769.63
2022-11-21T04:21:37.499Z,99774.34
2022-11-21T04:24:04.445Z,99768.72
2022-11-21T04:26:30.955Z,99766.03
2022-11-21T04:28:57.999Z,99779.38
2022-11-21T04:31:24.585Z,99778.44
2022-11-21T04:33:51.076Z,99783.25
2022-11-21T04:36:18.354Z,99779.00
2022-11-21T04:38:44.920Z,99777.97
2022-11-21T04:41:11.511Z,99774.84
2022-11-21T04:43:38.241Z,99776.97
2022-11-21T04:46:04.904Z,99770.59
2022-11-21T04:48:32.597Z,99766.88
2022-11-21T04:50:59.868Z,99771.16
2022-11-21T04:53:26.431Z,99770.16
2022-11-21T04:55:53.012Z,99770.44
2022-11-21T04:58:19.620Z,99769.13
2022-11-21T05:00:46.196Z,99761.91
2022-11-21T05:03:12.763Z,99763.78
2022-11-21T05:05:39.343Z,99759.47
2022-11-21T05:08:05.912Z,99765.84
2022-11-21T05:10:52.537Z,99763.13
2022-11-21T05:13:22.164Z,99759.94
2022-11-21T05:15:51.642Z,99777.59
2022-11-21T05:18:19.988Z,99777.38
2022-11-21T05:20:47.009Z,99783.56
2022-11-21T05:23:13.996Z,99780.38
2022-11-21T05:25:40.713Z,99776.66
2022-11-21T05:28:07.329Z,99775.28
2022-11-21T05:30:34.045Z,99774.47
2022-11-21T05:33:00.699Z,99776.09
2022-11-21T05:35:27.211Z,99776.66
2022-11-21T05:37:57.535Z,99764.34
2022-11-21T05:40:25.361Z,99764.09
2022-11-21T05:43:10.503Z,99766.25
2022-11-21T05:45:37.089Z,99768.13
2022-11-21T05:48:07.853Z,99767.56
2022-11-21T05:50:37.671Z,99767.81
2022-11-21T05:53:04.663Z,99770.25
2022-11-21T05:55:33.963Z,99770.22
2022-11-21T05:58:01.124Z,99766.47
2022-11-21T06:00:28.983Z,99768.09
2022-11-21T06:03:14.658Z,99762.75
2022-11-21T06:05:41.442Z,99765.38
2022-11-21T06:08:08.077Z,99770.22
2022-11-21T06:10:34.699Z,99763.03
2022-11-21T06:13:01.816Z,99760.91
2022-11-21T06:15:28.948Z,99769.75
2022-11-21T06:17:55.495Z,99765.44
2022-11-21T06:20:22.072Z,99772.38
2022-11-21T06:22:48.807Z,99777.19
2022-11-21T06:25:15.480Z,99777.22
2022-11-21T06:27:42.091Z,99788.91
2022-11-21T06:30:09.108Z,99778.50
2022-11-21T06:32:38.118Z,99782.53
2022-11-21T06:35:05.275Z,99777.22
2022-11-21T06:37:31.958Z,99771.38
2022-11-21T06:39:59.263Z,99768.72
2022-11-21T06:42:25.921Z,99781.53
2022-11-21T06:44:53.320Z,99785.81
2022-11-21T06:47:20.112Z,99787.41
2022-11-21T06:49:47.098Z,99783.09
2022-11-21T06:52:13.841Z,99787.13
2022-11-21T06:54:40.537Z,99784.72
2022-11-21T06:57:07.303Z,99778.31
2022-11-21T06:59:33.896Z,99780.97
2022-11-21T07:02:00.913Z,99786.31
2022-11-21T07:04:28.002Z,99784.75
2022-11-21T07:06:54.737Z,99792.78
2022-11-21T07:09:36.644Z,99784.25
2022-11-21T07:12:22.035Z,99787.47
2022-11-21T07:14:48.643Z,99793.88
2022-11-21T07:17:15.385Z,99788.28
2022-11-21T07:19:42.118Z,99788.53
2022-11-21T07:22:09.137Z,99796.53
2022-11-21T07:24:35.753Z,99789.06
2022-11-21T07:27:02.803Z,99801.91
2022-11-21T07:29:29.864Z,99796.59
2022-11-21T07:31:56.868Z,99796.84
2022-11-21T07:34:23.564Z,99797.63
2022-11-21T07:36:50.155Z,99798.41
2022-11-21T07:39:16.881Z,99801.06
2022-11-21T07:41:43.456Z,99801.28
2022-11-21T07:44:10.028Z,99805.72
2022-11-21T07:46:36.595Z,99813.72
2022-11-21T07:49:03.858Z,99826.28
2022-11-21T07:51:30.762Z,99821.56
2022-11-21T07:53:57.555Z,99816.72
2022-11-21T07:56:26.391Z,99825.28
2022-11-21T07:58:53.264Z,99819.38
2022-11-21T08:01:20.107Z,99814.03
2022-11-21T08:03:46.957Z,99824.97
2022-11-21T08:06:13.629Z,99825.78
2022-11-21T08:08:40.356Z,99828.41
2022-11-21T08:11:08.056Z,99824.09
2022-11-21T08:13:35.652Z,99817.97
2022-11-21T08:16:03.999Z,99819.38
2022-11-21T08:18:30.917Z,99825.88
2022-11-21T08:21:00.190Z,99826.13
2022-11-21T08:23:26.821Z,99817.16
2022-11-21T08:25:53.561Z,99813.50
2022-11-21T08:28:20.331Z,99814.13
2022-11-21T08:30:47.096Z,99821.16
2022-11-21T08:33:13.708Z,99812.41
2022-11-21T08:35:40.354Z,99815.88
2022-11-21T08:38:06.982Z,99805.97
2022-11-21T08:40:34.873Z,99814.25
2022-11-21T08:43:06.743Z,99811.06
2022-11-21T08:45:35.399Z,99802.78
2022-11-21T08:48:02.995Z,99803.59
2022-11-21T08:50:29.886Z,99800.09
2022-11-21T08:53:01.387Z,99802.50
2022-11-21T08:55:28.365Z,99800.91
2022-11-21T08:57:54.934Z,99799.59
2022-11-21T09:00:21.610Z,99802.84
2022-11-21T09:02:48.274Z,99802.31
2022-11-21T09:05:17.460Z,99799.66
2022-11-21T09:07:44.163Z,99799.06
2022-11-21T09:10:10.819Z,99796.59
2022-11-21T09:12:37.485Z,99783.66
2022-11-21T09:15:23.157Z,99787.09
2022-11-21T09:18:04.983Z,99782.00
2022-11-21T09:20:34.153Z,99783.97
2022-11-21T09:23:14.901Z,99779.19
2022-11-21T09:25:42.441Z,99779.22
2022-11-21T09:28:11.034Z,99768.00
2022-11-21T09:30:39.100Z,99776.59
2022-11-21T09:33:16.846Z,99774.22
2022-11-21T09:35:43.864Z,99775.00
2022-11-21T09:38:10.851Z,99781.41
2022-11-21T09:40:43.951Z,99764.97
2022-11-21T09:43:45.273Z,99764.09
2022-11-21T09:46:16.369Z,99759.88
2022-11-21T09:49:00.538Z,99755.16
2022-11-21T09:51:31.060Z,99754.69
2022-11-21T09:54:11.877Z,99758.16
2022-11-21T09:56:41.691Z,99754.41
2022-11-21T09:59:32.703Z,99754.41
2022-11-21T10:01:59.777Z,99750.41
2022-11-21T10:04:27.623Z,99751.22
2022-11-21T10:07:03.201Z,99744.53
2022-11-21T10:09:38.775Z,99732.25
2022-11-21T10:12:39.968Z,99730.09
2022-11-21T10:15:27.909Z,99730.09
2022-11-21T10:18:25.382Z,99725.81
2022-11-21T10:21:19.317Z,99721.53
2022-11-21T10:23:59.731Z,99724.19
2022-11-21T10:27:01.076Z,99708.59
2022-11-21T10:29:35.019Z,99702.41
2022-11-21T10:32:15.378Z,99705.88
2022-11-21T10:34:46.139Z,99703.53
2022-11-21T10:37:34.840Z,99703.53
2022-11-21T10:40:45.944Z,99697.09
2022-11-21T10:44:02.330Z,99682.88
2022-11-21T10:46:28.995Z,99677.19
2022-11-21T10:48:59.476Z,99675.50
2022-11-21T10:51:32.142Z,99671.88
2022-11-21T10:54:29.379Z,99658.19
2022-11-21T10:57:01.967Z,99646.56
2022-11-21T10:59:31.301Z,99634.16
2022-11-21T11:02:02.265Z,99636.50
2022-11-21T11:04:36.865Z,99629.81
2022-11-21T11:07:29.213Z,99637.59
2022-11-21T11:10:42.495Z,99637.69
2022-11-21T11:13:46.518Z,99637.72
2022-11-21T11:16:17.482Z,99614.53
2022-11-21T11:18:54.350Z,99608.13
2022-11-21T11:21:23.621Z,99602.34
2022-11-21T11:23:52.112Z,99590.06
2022-11-21T11:26:30.432Z,99579.03
2022-11-21T11:29:20.859Z,99576.28
2022-11-21T11:31:59.837Z,99560.72
2022-11-21T11:34:39.264Z,99551.19
2022-11-21T11:37:37.130Z,99545.72
2022-11-21T11:40:30.376Z,99546.69
2022-11-21T11:43:21.907Z,99536.97
2022-11-21T11:46:10.283Z,99536.81
2022-11-21T11:49:11.077Z,99518.22
2022-11-21T11:51:35.098Z,99498.66
2022-11-21T11:54:08.942Z,99504.13
2022-11-21T11:56:38.760Z,99502.69
2022-11-21T11:59:19.704Z,99497.03
2022-11-21T12:01:58.376Z,99501.16
2022-11-21T12:04:29.527Z,99499.03
2022-11-21T12:10:32.029Z,99506.06
2022-11-21T12:13:14.129Z,99509.78
2022-11-21T12:15:49.927Z,99499.38
2022-11-21T12:18:19.664Z,99499.22
2022-11-21T12:20:54.369Z,99502.19
2022-11-21T12:23:23.967Z,99489.94
2022-11-21T12:26:14.059Z,99488.41
2022-11-21T12:29:24.377Z,99484.78
2022-11-21T12:32:10.218Z,99482.72
2022-11-21T12:34:58.306Z,99482.50
2022-11-21T12:37:43.828Z,99477.38
2022-11-21T12:40:35.100Z,99465.38
2022-11-21T12:43:23.530Z,99473.72
2022-11-21T12:45:58.050Z,99463.06
2022-11-21T12:49:09.704Z,99452.63
2022-11-21T12:52:16.894Z,99440.88
2022-11-21T12:54:52.692Z,99438.56
2022-11-21T12:57:22.133Z,99437.72
2022-11-21T13:00:12.053Z,99435.75
2022-11-21T13:03:06.121Z,99424.78
2022-11-21T13:05:38.946Z,99421.66
2022-11-21T13:08:10.546Z,99419.03
2022-11-21T13:10:41.760Z,99406.72
2022-11-21T13:13:27.747Z,99412.09
2022-11-21T13:16:02.934Z,99392.13
2022-11-21T13:18:36.075Z,99390.94
2022-11-21T13:21:02.776Z,99386.91
2022-11-21T13:23:42.330Z,99387.88
2022-11-21T13:26:31.860Z,99385.19
2022-11-21T13:29:10.233Z,99383.03
2022-11-21T13:31:37.605Z,99369.44
2022-11-21T13:34:05.504Z,99376.50
2022-11-21T13:36:32.122Z,99372.38
2022-11-21T13:38:58.812Z,99376.31
2022-11-21T13:41:53.342Z,99359.34
2022-11-21T13:44:32.150Z,99352.44
2022-11-21T13:47:05.126Z,99361.00
2022-11-21T13:49:44.631Z,99350.94
2022-11-21T13:52:20.345Z,99342.88
2022-11-21T13:54:49.986Z,99332.03
2022-11-21T13:57:32.899Z,99324.38
2022-11-21T14:00:20.360Z,99325.66
2022-11-21T14:02:56.677Z,99320.97
2022-11-21T14:05:46.044Z,99315.47
2022-11-21T14:08:14.577Z,99314.84
2022-11-21T14:10:42.880Z,99307.53
2022-11-21T14:13:21.424Z,99313.03
2022-11-21T14:16:04.508Z,99301.50
2022-11-21T14:18:32.747Z,99301.50
2022-11-21T14:21:01.797Z,99297.34
2022-11-21T14:23:35.166Z,99293.38
2022-11-21T14:26:14.244Z,99290.84
2022-11-21T14:28:42.320Z,99292.59
2022-11-21T14:31:12.344Z,99298.44
2022-11-21T14:33:39.826Z,99292.06
2022-11-21T14:36:08.569Z,99284.09
2022-11-21T14:39:29.120Z,99278.66
2022-11-21T14:41:49.677Z,99281.94
2022-11-21T14:44:18.123Z,99275.47
2022-11-21T14:46:47.415Z,99265.56
2022-11-21T14:49:14.526Z,99258.34
2022-11-21T14:51:52.764Z,99254.19
2022-11-21T14:54:26.190Z,99253.69
2022-11-21T14:57:03.034Z,99243.53
2022-11-21T14:59:38.669Z,99235.56
2022-11-21T15:02:19.797Z,99219.75
2022-11-21T15:04:52.560Z,99208.88
2022-11-21T15:07:31.752Z,99200.91
2022-11-21T15:10:28.703Z,99193.50
2022-11-21T15:12:59.624Z,99197.91
2022-11-21T15:15:34.544Z,99187.53
2022-11-21T15:20:59.738Z,99162.84
2022-11-21T15:23:36.846Z,99157.94
2022-11-21T15:26:06.227Z,99146.22
2022-11-21T15:28:36.587Z,99145.53
2022-11-21T15:31:20.020Z,99133.44
2022-11-21T15:34:19.099Z,99127.53
2022-11-21T15:36:40.654Z,99112.63
2022-11-21T15:39:21.844Z,99119.91
2022-11-21T15:41:55.425Z,99111.16
2022-11-21T15:44:23.013Z,99090.31
2022-11-21T15:46:53.125Z,99075.28
2022-11-21T15:49:32.916Z,99074.78
2022-11-21T15:52:13.476Z,99060.13
2022-11-21T15:54:43.973Z,99054.34
2022-11-21T15:57:11.652Z,99047.16
2022-11-21T15:59:43.480Z,99058.53
2022-11-21T16:02:13.667Z,99042.59
2022-11-21T16:04:41.441Z,99046.16
2022-11-21T16:07:08.449Z,99042.41
2022-11-21T16:09:40.194Z,99028.78
2022-11-21T16:12:08.846Z,99026.22
2022-11-21T16:14:38.581Z,99026.22
2022-11-21T16:17:05.581Z,99017.69
2022-11-21T16:19:32.868Z,99009.88
2022-11-21T16:22:00.176Z,99004.53
2022-11-21T16:24:27.203Z,98996.25
2022-11-21T16:27:01.886Z,98988.50
2022-11-21T16:29:31.611Z,98993.84
2022-11-21T16:32:04.069Z,98990.44
2022-11-21T16:34:34.007Z,98968.59
2022-11-21T16:37:07.267Z,98970.97
2022-11-21T16:39:37.821Z,98968.34
2022-11-21T16:42:04.867Z,98968.91
2022-11-21T16:44:32.270Z,98976.22
2022-11-21T16:47:06.632Z,98986.63
2022-11-21T16:49:41.108Z,98994.59
2022-11-21T16:52:08.211Z,98989.22
2022-11-21T16:54:38.933Z,98990.91
2022-11-21T16:57:07.263Z,98987.66
2022-11-21T16:59:37.150Z,98968.97
2022-11-21T17:02:04.268Z,98948.19
2022-11-21T17:04:32.266Z,98927.06
2022-11-21T17:07:05.102Z,98931.06
2022-11-21T17:09:32.170Z,98931.59
2022-11-21T17:12:01.883Z,98930.50
2022-11-21T17:14:28.887Z,98943.59
2022-11-21T17:17:01.294Z,98937.03
2022-11-21T17:19:28.511Z,98937.03
2022-11-21T17:21:56.121Z,98938.13
2022-11-21T17:24:23.525Z,98949.06
2022-11-21T17:26:50.335Z,98946.19
2022-11-21T17:29:17.199Z,98955.44
2022-11-21T17:31:44.030Z,98937.81
2022-11-21T17:34:10.773Z,98925.81
2022-11-21T17:36:37.450Z,98910.25
2022-11-21T17:39:06.328Z,98926.28
2022-11-21T17:41:33.249Z,98957.84
2022-11-21T17:44:02.765Z,98953.22
2022-11-21T17:46:35.316Z,98941.25
2022-11-21T17:49:02.210Z,98934.53
2022-11-21T17:51:33.570Z,98939.59
2022-11-21T17:54:01.523Z,98927.88
2022-11-21T17:56:32.407Z,98908.56
2022-11-21T17:59:28.459Z,98910.75
2022-11-21T18:01:56.530Z,98918.03
2022-11-21T18:04:23.491Z,98914.53
2022-11-21T18:06:50.254Z,98909.72
2022-11-21T18:09:17.384Z,98902.22
2022-11-21T18:11:46.212Z,98898.19
2022-11-21T18:14:16.126Z,98894.88
2022-11-21T18:16:49.342Z,98902.84
2022-11-21T18:19:23.436Z,98891.59
2022-11-21T18:21:50.119Z,98877.63
2022-11-21T18:24:17.812Z,98880.34
2022-11-21T18:26:44.918Z,98875.94
2022-11-21T18:31:58.984Z,98872.97
2022-11-21T18:34:25.730Z,98883.91
2022-11-21T18:36:52.377Z,98896.88
2022-11-21T18:39:23.190Z,98900.34
2022-11-21T18:41:50.910Z,98902.16
2022-11-21T18:44:22.248Z,98914.47
2022-11-21T18:46:49.887Z,98915.00
2022-11-21T18:49:16.907Z,98925.63
2022-11-21T18:51:48.498Z,98924.56
2022-11-21T18:54:15.908Z,98923.78
2022-11-21T18:56:43.381Z,98924.28
2022-11-21T18:59:10.437Z,98914.13
2022-11-21T19:01:40.106Z,98902.09
2022-11-21T19:04:16.168Z,98895.47
2022-11-21T19:06:43.329Z,98886.66
2022-11-21T19:09:12.612Z,98880.97
2022-11-21T19:11:42.267Z,98870.63
2022-11-21T19:14:11.138Z,98856.72
2022-11-21T19:16:37.868Z,98856.00
2022-11-21T19:21:57.867Z,98841.72
2022-11-21T19:24:25.472Z,98834.75
2022-11-21T19:26:58.030Z,98837.41
2022-11-21T19:29:24.990Z,98829.47
2022-11-21T19:31:52.098Z,98830.84
2022-11-21T19:34:18.780Z,98826.47
2022-11-21T19:36:50.746Z,98816.59
2022-11-21T19:39:31.548Z,98819.31
2022-11-21T19:41:59.546Z,98823.28
2022-11-21T19:44:26.351Z,98814.34
2022-11-21T19:46:56.159Z,98811.56
2022-11-21T19:49:29.812Z,98812.63
2022-11-21T19:52:08.752Z,98814.88
2022-11-21T19:54:42.330Z,98809.97
2022-11-21T19:57:13.911Z,98812.38
2022-11-21T19:59:46.806Z,98812.75
2022-11-21T20:02:19.622Z,98805.69
2022-11-21T20:04:51.938Z,98807.22
2022-11-21T20:07:26.253Z,98813.88
2022-11-21T20:09:53.750Z,98806.19
2022-11-21T20:12:20.624Z,98803.53
2022-11-21T20:14:50.099Z,98801.75
2022-11-21T20:17:17.487Z,98804.09
2022-11-21T20:19:50.282Z,98793.47
2022-11-21T20:22:21.899Z,98791.34
2022-11-21T20:24:51.928Z,98782.56
2022-11-21T20:27:21.556Z,98791.13
2022-11-21T20:29:50.720Z,98784.66
2022-11-21T20:32:33.233Z,98796.69
2022-11-21T20:35:03.311Z,98798.31
2022-11-21T20:37:33.734Z,98799.03
2022-11-21T20:40:06.816Z,98791.34
2022-11-21T20:42:37.685Z,98786.38
2022-11-21T20:46:07.204Z,98790.16
2022-11-21T20:48:10.541Z,98788.63
2022-11-21T20:51:42.261Z,98792.69
2022-11-21T20:53:52.328Z,98793.59
2022-11-21T20:56:17.527Z,98788.34
2022-11-21T20:58:45.694Z,98791.66
2022-11-21T21:01:18.216Z,98785.63
2022-11-21T21:03:45.583Z,98791.03
2022-11-21T21:06:19.716Z,98778.50
2022-11-21T21:08:53.716Z,98790.31
2022-11-21T21:11:50.320Z,98780.75
2022-11-21T21:14:10.379Z,98777.31
2022-11-21T21:16:39.761Z,98778.72
2022-11-21T21:19:06.800Z,98764.88
2022-11-21T21:21:35.147Z,98771.28
2022-11-21T21:24:12.373Z,98770.78
2022-11-21T21:26:44.956Z,98764.88
2022-11-21T21:29:22.110Z,98772.22
2022-11-21T21:31:52.019Z,98773.28
2022-11-21T21:34:21.691Z,98780.16
2022-11-21T21:36:49.411Z,98780.69
2022-11-21T21:39:16.342Z,98775.41
2022-11-21T21:41:47.359Z,98771.69
2022-11-21T21:44:17.914Z,98766.66
2022-11-21T21:46:45.468Z,98769.56
2022-11-21T21:49:12.816Z,98770.03
2022-11-21T21:51:40.178Z,98766.31
2022-11-21T21:54:13.172Z,98765.72
2022-11-21T21:56:39.811Z,98765.16
2022-11-21T21:59:10.121Z,98753.97
2022-11-21T22:01:39.104Z,98756.22
2022-11-21T22:04:09.424Z,98756.03
2022-11-21T22:06:38.373Z,98750.13
2022-11-21T22:09:05.076Z,98757.28
2022-11-21T22:11:35.552Z,98758.88
2022-11-21T22:14:05.933Z,98749.72
2022-11-21T22:16:33.228Z,98757.13
2022-11-21T22:19:03.020Z,98754.19
2022-11-21T22:21:32.748Z,98759.53
2022-11-21T22:24:25.912Z,98755.06
2022-11-21T22:26:56.490Z,98753.81
2022-11-21T22:29:25.967Z,98769.56
2022-11-21T22:31:52.793Z,98754.66
2022-11-21T22:34:19.616Z,98751.03
2022-11-21T22:36:47.021Z,98758.25
2022-11-21T22:39:14.343Z,98760.19
2022-11-21T22:41:41.490Z,98763.41
2022-11-21T22:44:11.249Z,98761.09
2022-11-21T22:46:39.060Z,98765.06
2022-11-21T22:49:06.012Z,98757.59
2022-11-21T22:51:32.681Z,98745.88
2022-11-21T22:53:59.943Z,98737.91
2022-11-21T22:56:29.759Z,98737.38
2022-11-21T22:58:56.793Z,98732.56
2022-11-21T23:01:26.025Z,98729.31
2022-11-21T23:03:53.564Z,98722.00
2022-11-21T23:06:24.074Z,98721.72
2022-11-21T23:08:52.417Z,98718.94
2022-11-21T23:11:22.901Z,98715.75
2022-11-21T23:13:53.411Z,98718.94
2022-11-21T23:16:21.182Z,98710.91
2022-11-21T23:18:48.399Z,98714.63
2022-11-21T23:21:15.448Z,98721.25
2022-11-21T23:23:44.013Z,98707.78
2022-11-21T23:26:12.199Z,98714.56
2022-11-21T23:28:39.279Z,98707.22
2022-11-21T23:31:09.225Z,98709.88
2022-11-21T23:33:36.337Z,98712.03
2022-11-21T23:36:02.973Z,98711.38
2022-11-21T23:38:33.273Z,98710.69
2022-11-21T23:41:00.142Z,98712.25
2022-11-21T23:43:27.367Z,98715.28
2022-11-21T23:45:57.081Z,98720.09
2022-11-21T23:48:26.708Z,98722.22
2022-11-21T23:50:58.931Z,98723.31
2022-11-21T23:53:27.537Z,98728.53
2022-11-21T23:55:54.299Z,98711.25
2022-11-21T23:58:21.263Z,98711.44
